Terminal Aerodrome Forecast
Issued by NWS Wilmington, OH

Current Version | Previous Version | Text Only | Print | Product List | Glossary On
Versions: 1 2 3 4 5 6 7 8 9 10 11 12 13 14 15 16 17 18 19 20 21 22 23 24 25 26 27
000
FTUS41 KILN 030536
TAFCMH
TAF
KCMH 030536Z 0306/0406 00000KT P6SM BKN120
     FM031400 31007KT P6SM SCT040
     FM031800 32008KT P6SM VCTS BKN035CB
     FM040100 VRB02KT P6SM VCTS SCT040CB BKN130=

USA.gov is the U.S. government's official web portal to all federal, state and local government web resources and services.